Skip Navigation LinksHome page > Weather > Current weather Skip Navigation Links

Current Weather

Indira Gandhi Intl Apt, New Delhi, India

For information only: do not use for flight planning or navigation.
Latest weather
Observation time Friday, November 16, 2018 5:00 AM IST
Local time Friday, November 16, 2018 5:31 AM IST
Flight conditions Low Instrument Meteorological Conditions
Winds
Wind direction West (260°)
Wind speed 5 mph
Visibility 0.5 mi.
Present weather MIFG
Sky condition
Ceiling unlimited
Temperature 57°F
Dewpoint 55°F
Altimeter 29.94 in.Hg
Derived measurements
Relative humidity 94%
Density altitude 829 ft.
Remarks
No significant changes expected in the next two hours.
METAR VIDP 152330Z 26004KT 0800 R28/P2000 R29/P2000 MIFG NSC 14/13 Q1014 NOSIG

Settings

Location code

InnerDrive.Weather 4.0.6770.0 Release CLR 4.0.30319.42000
Copyright ©2018 Inner Drive Technology. All rights reserved. Portions Copyright ©1986-2018 David Braverman.

Find weather

Site navigation


Skip Navigation Links

Place info

Page info

PayPal - The safer, easier way to pay online!

Return home.

Copyright ©2018 Inner Drive Technology. Purveyors of fine, hand-crafted computer software. Page printed 2018-11-16T00:01:48 UTC.